sensor_id;sensor_type;location;lat;lon;timestamp;temperature;humidity
17762;DHT22;9005;48.838;10.112;2024-03-22T00:01:10;4.80;83.10
17762;DHT22;9005;48.838;10.112;2024-03-22T00:03:36;4.70;83.10
17762;DHT22;9005;48.838;10.112;2024-03-22T00:06:02;4.70;83.10
17762;DHT22;9005;48.838;10.112;2024-03-22T00:08:29;4.60;83.20
17762;DHT22;9005;48.838;10.112;2024-03-22T00:10:55;4.50;83.60
17762;DHT22;9005;48.838;10.112;2024-03-22T00:13:22;4.50;83.80
17762;DHT22;9005;48.838;10.112;2024-03-22T00:15:47;4.40;84.30
17762;DHT22;9005;48.838;10.112;2024-03-22T00:18:15;4.30;84.40
17762;DHT22;9005;48.838;10.112;2024-03-22T00:20:41;4.30;84.50
17762;DHT22;9005;48.838;10.112;2024-03-22T00:23:08;4.30;84.60
17762;DHT22;9005;48.838;10.112;2024-03-22T00:25:33;4.20;84.70
17762;DHT22;9005;48.838;10.112;2024-03-22T00:28:00;4.10;84.90
17762;DHT22;9005;48.838;10.112;2024-03-22T00:30:26;4.10;85.00
17762;DHT22;9005;48.838;10.112;2024-03-22T00:32:53;4.00;85.20
17762;DHT22;9005;48.838;10.112;2024-03-22T00:35:20;4.00;85.30
17762;DHT22;9005;48.838;10.112;2024-03-22T00:37:47;3.90;85.60
17762;DHT22;9005;48.838;10.112;2024-03-22T00:40:13;3.90;86.10
17762;DHT22;9005;48.838;10.112;2024-03-22T00:42:39;3.90;86.20
17762;DHT22;9005;48.838;10.112;2024-03-22T00:45:06;3.90;86.30
17762;DHT22;9005;48.838;10.112;2024-03-22T00:47:32;3.80;86.40
17762;DHT22;9005;48.838;10.112;2024-03-22T00:49:58;3.80;86.40
17762;DHT22;9005;48.838;10.112;2024-03-22T00:52:28;3.80;86.30
17762;DHT22;9005;48.838;10.112;2024-03-22T00:54:54;3.70;86.70
17762;DHT22;9005;48.838;10.112;2024-03-22T00:57:21;3.70;86.80
17762;DHT22;9005;48.838;10.112;2024-03-22T00:59:46;3.70;87.00
17762;DHT22;9005;48.838;10.112;2024-03-22T01:02:13;3.60;87.00
17762;DHT22;9005;48.838;10.112;2024-03-22T01:04:39;3.60;87.00
17762;DHT22;9005;48.838;10.112;2024-03-22T01:07:05;3.60;87.10
17762;DHT22;9005;48.838;10.112;2024-03-22T01:09:32;3.50;87.20
17762;DHT22;9005;48.838;10.112;2024-03-22T01:11:59;3.50;87.30
17762;DHT22;9005;48.838;10.112;2024-03-22T01:14:25;3.50;87.30
17762;DHT22;9005;48.838;10.112;2024-03-22T01:16:51;3.50;87.30
17762;DHT22;9005;48.838;10.112;2024-03-22T01:19:17;3.50;87.20
17762;DHT22;9005;48.838;10.112;2024-03-22T01:21:46;3.40;87.50
17762;DHT22;9005;48.838;10.112;2024-03-22T01:24:11;3.40;87.50
17762;DHT22;9005;48.838;10.112;2024-03-22T01:26:39;3.30;87.50
17762;DHT22;9005;48.838;10.112;2024-03-22T01:29:05;3.30;87.70
17762;DHT22;9005;48.838;10.112;2024-03-22T01:31:32;3.20;87.90
17762;DHT22;9005;48.838;10.112;2024-03-22T01:33:57;3.20;87.80
17762;DHT22;9005;48.838;10.112;2024-03-22T01:36:24;3.10;88.00
17762;DHT22;9005;48.838;10.112;2024-03-22T01:38:50;3.10;88.40
17762;DHT22;9005;48.838;10.112;2024-03-22T01:41:17;3.10;88.60
17762;DHT22;9005;48.838;10.112;2024-03-22T01:43:44;3.10;88.80
17762;DHT22;9005;48.838;10.112;2024-03-22T01:46:11;3.10;88.80
17762;DHT22;9005;48.838;10.112;2024-03-22T01:48:37;3.00;88.80
17762;DHT22;9005;48.838;10.112;2024-03-22T01:51:04;3.00;88.80
17762;DHT22;9005;48.838;10.112;2024-03-22T01:53:30;3.10;88.60
17762;DHT22;9005;48.838;10.112;2024-03-22T01:55:58;3.00;88.40
17762;DHT22;9005;48.838;10.112;2024-03-22T01:58:24;3.00;88.30
17762;DHT22;9005;48.838;10.112;2024-03-22T02:00:52;3.00;88.20
17762;DHT22;9005;48.838;10.112;2024-03-22T02:03:18;3.00;88.10
17762;DHT22;9005;48.838;10.112;2024-03-22T02:05:45;3.00;88.00
17762;DHT22;9005;48.838;10.112;2024-03-22T02:08:10;3.10;88.10
17762;DHT22;9005;48.838;10.112;2024-03-22T02:10:37;3.10;88.00
17762;DHT22;9005;48.838;10.112;2024-03-22T02:13:03;3.20;87.50
17762;DHT22;9005;48.838;10.112;2024-03-22T02:15:30;3.30;87.00
17762;DHT22;9005;48.838;10.112;2024-03-22T02:17:58;3.30;86.70
17762;DHT22;9005;48.838;10.112;2024-03-22T02:20:24;3.30;86.20
17762;DHT22;9005;48.838;10.112;2024-03-22T02:22:50;3.20;86.00
17762;DHT22;9005;48.838;10.112;2024-03-22T02:25:18;3.20;86.00
17762;DHT22;9005;48.838;10.112;2024-03-22T02:27:44;3.20;86.00
17762;DHT22;9005;48.838;10.112;2024-03-22T02:30:15;3.10;86.10
17762;DHT22;9005;48.838;10.112;2024-03-22T02:32:41;3.10;86.40
17762;DHT22;9005;48.838;10.112;2024-03-22T02:35:08;3.10;86.50
17762;DHT22;9005;48.838;10.112;2024-03-22T02:37:34;3.00;86.90
17762;DHT22;9005;48.838;10.112;2024-03-22T02:40:01;3.00;86.90
17762;DHT22;9005;48.838;10.112;2024-03-22T02:42:28;3.00;86.90
17762;DHT22;9005;48.838;10.112;2024-03-22T02:44:54;3.00;86.80
17762;DHT22;9005;48.838;10.112;2024-03-22T02:47:20;3.00;86.80
17762;DHT22;9005;48.838;10.112;2024-03-22T02:49:47;3.00;86.80
17762;DHT22;9005;48.838;10.112;2024-03-22T02:52:13;3.00;86.80
17762;DHT22;9005;48.838;10.112;2024-03-22T02:54:39;3.00;86.80
17762;DHT22;9005;48.838;10.112;2024-03-22T02:57:06;3.00;86.70
17762;DHT22;9005;48.838;10.112;2024-03-22T02:59:34;3.00;86.70
17762;DHT22;9005;48.838;10.112;2024-03-22T03:02:00;3.10;86.40
17762;DHT22;9005;48.838;10.112;2024-03-22T03:04:26;3.10;85.90
17762;DHT22;9005;48.838;10.112;2024-03-22T03:06:52;3.10;85.60
17762;DHT22;9005;48.838;10.112;2024-03-22T03:09:19;3.20;85.40
17762;DHT22;9005;48.838;10.112;2024-03-22T03:11:44;3.20;85.40
17762;DHT22;9005;48.838;10.112;2024-03-22T03:14:11;3.10;85.10
17762;DHT22;9005;48.838;10.112;2024-03-22T03:16:38;3.10;85.00
17762;DHT22;9005;48.838;10.112;2024-03-22T03:19:05;3.10;85.00
17762;DHT22;9005;48.838;10.112;2024-03-22T03:21:31;3.10;85.00
17762;DHT22;9005;48.838;10.112;2024-03-22T03:23:57;3.00;85.20
17762;DHT22;9005;48.838;10.112;2024-03-22T03:26:23;2.90;85.30
17762;DHT22;9005;48.838;10.112;2024-03-22T03:28:50;2.90;85.60
17762;DHT22;9005;48.838;10.112;2024-03-22T03:31:16;2.90;85.70
17762;DHT22;9005;48.838;10.112;2024-03-22T03:33:44;2.80;85.90
17762;DHT22;9005;48.838;10.112;2024-03-22T03:36:09;2.80;85.90
17762;DHT22;9005;48.838;10.112;2024-03-22T03:38:36;2.70;86.30
17762;DHT22;9005;48.838;10.112;2024-03-22T03:41:03;2.70;86.50
17762;DHT22;9005;48.838;10.112;2024-03-22T03:43:30;2.60;86.70
17762;DHT22;9005;48.838;10.112;2024-03-22T03:45:55;2.60;87.00
17762;DHT22;9005;48.838;10.112;2024-03-22T03:48:22;2.60;87.10
17762;DHT22;9005;48.838;10.112;2024-03-22T03:50:53;2.50;87.10
17762;DHT22;9005;48.838;10.112;2024-03-22T03:53:21;2.40;87.00
17762;DHT22;9005;48.838;10.112;2024-03-22T03:55:46;2.40;87.50
17762;DHT22;9005;48.838;10.112;2024-03-22T03:58:13;2.30;87.70
17762;DHT22;9005;48.838;10.112;2024-03-22T04:00:39;2.30;88.10
17762;DHT22;9005;48.838;10.112;2024-03-22T04:03:06;2.30;88.50
17762;DHT22;9005;48.838;10.112;2024-03-22T04:05:31;2.30;88.70
17762;DHT22;9005;48.838;10.112;2024-03-22T04:07:59;2.30;88.70
17762;DHT22;9005;48.838;10.112;2024-03-22T04:10:25;2.30;88.80
17762;DHT22;9005;48.838;10.112;2024-03-22T04:12:52;2.30;89.30
17762;DHT22;9005;48.838;10.112;2024-03-22T04:15:17;2.30;89.80
17762;DHT22;9005;48.838;10.112;2024-03-22T04:17:44;2.30;89.90
17762;DHT22;9005;48.838;10.112;2024-03-22T04:20:11;2.30;89.90
17762;DHT22;9005;48.838;10.112;2024-03-22T04:22:38;2.40;90.40
17762;DHT22;9005;48.838;10.112;2024-03-22T04:25:06;2.40;90.40
17762;DHT22;9005;48.838;10.112;2024-03-22T04:27:35;2.50;90.30
17762;DHT22;9005;48.838;10.112;2024-03-22T04:30:02;2.50;90.10
17762;DHT22;9005;48.838;10.112;2024-03-22T04:32:28;2.40;90.00
17762;DHT22;9005;48.838;10.112;2024-03-22T04:34:54;2.40;89.90
17762;DHT22;9005;48.838;10.112;2024-03-22T04:37:21;2.30;89.90
17762;DHT22;9005;48.838;10.112;2024-03-22T04:39:49;2.30;90.00
17762;DHT22;9005;48.838;10.112;2024-03-22T04:42:17;2.30;90.00
17762;DHT22;9005;48.838;10.112;2024-03-22T04:44:44;2.20;90.10
17762;DHT22;9005;48.838;10.112;2024-03-22T04:47:09;2.20;90.40
17762;DHT22;9005;48.838;10.112;2024-03-22T04:49:36;2.20;90.70
17762;DHT22;9005;48.838;10.112;2024-03-22T04:52:02;2.20;90.80
17762;DHT22;9005;48.838;10.112;2024-03-22T04:54:28;2.10;90.90
17762;DHT22;9005;48.838;10.112;2024-03-22T04:56:54;2.20;91.00
17762;DHT22;9005;48.838;10.112;2024-03-22T04:59:22;2.20;91.10
17762;DHT22;9005;48.838;10.112;2024-03-22T05:01:48;2.20;91.20
17762;DHT22;9005;48.838;10.112;2024-03-22T05:04:15;2.20;91.40
17762;DHT22;9005;48.838;10.112;2024-03-22T05:06:40;2.30;91.70
17762;DHT22;9005;48.838;10.112;2024-03-22T05:09:07;2.30;91.80
17762;DHT22;9005;48.838;10.112;2024-03-22T05:11:35;2.40;91.80
17762;DHT22;9005;48.838;10.112;2024-03-22T05:14:02;2.40;91.60
17762;DHT22;9005;48.838;10.112;2024-03-22T05:16:29;2.40;91.40
17762;DHT22;9005;48.838;10.112;2024-03-22T05:18:56;2.40;91.30
17762;DHT22;9005;48.838;10.112;2024-03-22T05:21:22;2.40;91.40
17762;DHT22;9005;48.838;10.112;2024-03-22T05:23:48;2.40;91.40
17762;DHT22;9005;48.838;10.112;2024-03-22T05:26:14;2.30;91.30
17762;DHT22;9005;48.838;10.112;2024-03-22T05:28:41;2.30;91.20
17762;DHT22;9005;48.838;10.112;2024-03-22T05:31:06;2.30;91.00
17762;DHT22;9005;48.838;10.112;2024-03-22T05:33:35;2.30;91.20
17762;DHT22;9005;48.838;10.112;2024-03-22T05:36:00;2.30;91.10
17762;DHT22;9005;48.838;10.112;2024-03-22T05:38:27;2.30;91.00
17762;DHT22;9005;48.838;10.112;2024-03-22T05:40:53;2.30;91.20
17762;DHT22;9005;48.838;10.112;2024-03-22T05:43:19;2.30;91.10
17762;DHT22;9005;48.838;10.112;2024-03-22T05:45:45;2.30;91.00
17762;DHT22;9005;48.838;10.112;2024-03-22T05:48:12;2.30;91.20
17762;DHT22;9005;48.838;10.112;2024-03-22T05:50:40;2.30;91.30
17762;DHT22;9005;48.838;10.112;2024-03-22T05:53:06;2.30;91.30
17762;DHT22;9005;48.838;10.112;2024-03-22T05:55:33;2.40;91.40
17762;DHT22;9005;48.838;10.112;2024-03-22T05:57:58;2.40;91.50
17762;DHT22;9005;48.838;10.112;2024-03-22T06:00:25;2.40;91.60
17762;DHT22;9005;48.838;10.112;2024-03-22T06:02:51;2.50;91.80
17762;DHT22;9005;48.838;10.112;2024-03-22T06:05:18;2.60;92.00
17762;DHT22;9005;48.838;10.112;2024-03-22T06:07:45;2.70;92.20
17762;DHT22;9005;48.838;10.112;2024-03-22T06:10:11;3.00;92.50
17762;DHT22;9005;48.838;10.112;2024-03-22T06:12:37;3.00;92.50
17762;DHT22;9005;48.838;10.112;2024-03-22T06:15:05;3.20;92.50
17762;DHT22;9005;48.838;10.112;2024-03-22T06:17:31;3.30;92.50
17762;DHT22;9005;48.838;10.112;2024-03-22T06:19:58;3.50;92.20
17762;DHT22;9005;48.838;10.112;2024-03-22T06:22:25;3.70;92.00
17762;DHT22;9005;48.838;10.112;2024-03-22T06:24:53;3.80;91.70
17762;DHT22;9005;48.838;10.112;2024-03-22T06:27:19;4.00;91.20
17762;DHT22;9005;48.838;10.112;2024-03-22T06:29:45;4.20;91.00
17762;DHT22;9005;48.838;10.112;2024-03-22T06:32:11;4.40;90.90
17762;DHT22;9005;48.838;10.112;2024-03-22T06:34:38;4.80;90.30
17762;DHT22;9005;48.838;10.112;2024-03-22T06:37:04;4.80;90.20
17762;DHT22;9005;48.838;10.112;2024-03-22T06:39:31;5.10;89.30
17762;DHT22;9005;48.838;10.112;2024-03-22T06:41:58;5.30;88.90
17762;DHT22;9005;48.838;10.112;2024-03-22T06:44:25;5.50;88.30
17762;DHT22;9005;48.838;10.112;2024-03-22T06:46:50;5.70;87.70
17762;DHT22;9005;48.838;10.112;2024-03-22T06:49:17;5.90;86.70
17762;DHT22;9005;48.838;10.112;2024-03-22T06:51:43;6.10;85.90
17762;DHT22;9005;48.838;10.112;2024-03-22T06:54:10;6.20;85.10
17762;DHT22;9005;48.838;10.112;2024-03-22T06:56:35;6.40;83.50
17762;DHT22;9005;48.838;10.112;2024-03-22T06:59:03;6.60;83.30
17762;DHT22;9005;48.838;10.112;2024-03-22T07:01:29;6.80;82.00
17762;DHT22;9005;48.838;10.112;2024-03-22T07:03:56;7.00;81.20
17762;DHT22;9005;48.838;10.112;2024-03-22T07:06:21;7.20;80.50
17762;DHT22;9005;48.838;10.112;2024-03-22T07:08:48;7.50;79.30
17762;DHT22;9005;48.838;10.112;2024-03-22T07:11:14;7.90;77.60
17762;DHT22;9005;48.838;10.112;2024-03-22T07:13:40;8.00;77.40
17762;DHT22;9005;48.838;10.112;2024-03-22T07:16:08;8.10;76.50
17762;DHT22;9005;48.838;10.112;2024-03-22T07:18:34;8.20;76.00
17762;DHT22;9005;48.838;10.112;2024-03-22T07:21:00;8.20;75.50
17762;DHT22;9005;48.838;10.112;2024-03-22T07:23:29;8.30;74.80
17762;DHT22;9005;48.838;10.112;2024-03-22T07:25:54;8.20;74.50
17762;DHT22;9005;48.838;10.112;2024-03-22T07:28:21;8.20;74.60
17762;DHT22;9005;48.838;10.112;2024-03-22T07:30:47;8.20;75.20
17762;DHT22;9005;48.838;10.112;2024-03-22T07:33:15;8.20;74.80
17762;DHT22;9005;48.838;10.112;2024-03-22T07:35:43;8.30;73.40
17762;DHT22;9005;48.838;10.112;2024-03-22T07:38:11;8.30;73.20
17762;DHT22;9005;48.838;10.112;2024-03-22T07:40:36;8.30;73.50
17762;DHT22;9005;48.838;10.112;2024-03-22T07:43:03;8.30;73.30
17762;DHT22;9005;48.838;10.112;2024-03-22T07:45:32;8.40;73.60
17762;DHT22;9005;48.838;10.112;2024-03-22T07:47:59;8.50;73.30
17762;DHT22;9005;48.838;10.112;2024-03-22T07:50:26;8.50;73.40
17762;DHT22;9005;48.838;10.112;2024-03-22T07:52:53;8.60;73.30
17762;DHT22;9005;48.838;10.112;2024-03-22T07:55:18;8.70;72.70
17762;DHT22;9005;48.838;10.112;2024-03-22T07:57:45;8.90;72.50
17762;DHT22;9005;48.838;10.112;2024-03-22T08:00:12;9.00;71.80
17762;DHT22;9005;48.838;10.112;2024-03-22T08:02:38;9.10;71.50
17762;DHT22;9005;48.838;10.112;2024-03-22T08:05:06;9.10;72.00
17762;DHT22;9005;48.838;10.112;2024-03-22T08:07:34;9.10;71.70
17762;DHT22;9005;48.838;10.112;2024-03-22T08:10:00;9.20;71.10
17762;DHT22;9005;48.838;10.112;2024-03-22T08:12:27;9.20;71.40
17762;DHT22;9005;48.838;10.112;2024-03-22T08:14:53;9.30;72.10
17762;DHT22;9005;48.838;10.112;2024-03-22T08:17:21;9.40;71.60
17762;DHT22;9005;48.838;10.112;2024-03-22T08:19:46;9.60;71.20
17762;DHT22;9005;48.838;10.112;2024-03-22T08:22:13;9.70;71.10
17762;DHT22;9005;48.838;10.112;2024-03-22T08:24:40;9.80;71.00
17762;DHT22;9005;48.838;10.112;2024-03-22T08:27:07;10.00;69.60
17762;DHT22;9005;48.838;10.112;2024-03-22T08:29:33;10.20;69.00
17762;DHT22;9005;48.838;10.112;2024-03-22T08:31:59;10.40;67.60
17762;DHT22;9005;48.838;10.112;2024-03-22T08:34:28;10.60;67.20
17762;DHT22;9005;48.838;10.112;2024-03-22T08:36:55;10.70;67.60
17762;DHT22;9005;48.838;10.112;2024-03-22T08:39:20;10.70;66.60
17762;DHT22;9005;48.838;10.112;2024-03-22T08:41:49;10.70;66.70
17762;DHT22;9005;48.838;10.112;2024-03-22T08:44:15;10.60;66.50
17762;DHT22;9005;48.838;10.112;2024-03-22T08:46:41;10.60;67.00
17762;DHT22;9005;48.838;10.112;2024-03-22T08:49:07;10.60;67.30
17762;DHT22;9005;48.838;10.112;2024-03-22T08:51:34;10.70;67.10
17762;DHT22;9005;48.838;10.112;2024-03-22T08:53:59;10.80;66.40
17762;DHT22;9005;48.838;10.112;2024-03-22T08:56:27;10.90;66.10
17762;DHT22;9005;48.838;10.112;2024-03-22T08:58:54;11.00;65.70
17762;DHT22;9005;48.838;10.112;2024-03-22T09:01:21;11.20;66.20
17762;DHT22;9005;48.838;10.112;2024-03-22T09:03:47;11.40;64.70
17762;DHT22;9005;48.838;10.112;2024-03-22T09:06:14;11.60;63.30
17762;DHT22;9005;48.838;10.112;2024-03-22T09:08:40;11.70;62.40
17762;DHT22;9005;48.838;10.112;2024-03-22T09:11:07;11.90;62.10
17762;DHT22;9005;48.838;10.112;2024-03-22T09:13:32;12.00;61.10
17762;DHT22;9005;48.838;10.112;2024-03-22T09:16:02;12.00;62.20
17762;DHT22;9005;48.838;10.112;2024-03-22T09:18:28;12.20;62.90
17762;DHT22;9005;48.838;10.112;2024-03-22T09:20:55;12.30;61.30
17762;DHT22;9005;48.838;10.112;2024-03-22T09:23:21;12.40;61.30
17762;DHT22;9005;48.838;10.112;2024-03-22T09:25:49;12.50;59.80
17762;DHT22;9005;48.838;10.112;2024-03-22T09:28:15;12.50;60.20
17762;DHT22;9005;48.838;10.112;2024-03-22T09:30:41;12.70;58.00
17762;DHT22;9005;48.838;10.112;2024-03-22T09:33:10;12.90;58.00
17762;DHT22;9005;48.838;10.112;2024-03-22T09:35:36;13.10;57.30
17762;DHT22;9005;48.838;10.112;2024-03-22T09:38:02;13.20;56.70
17762;DHT22;9005;48.838;10.112;2024-03-22T09:40:29;13.10;56.20
17762;DHT22;9005;48.838;10.112;2024-03-22T09:43:02;13.20;56.50
17762;DHT22;9005;48.838;10.112;2024-03-22T09:45:29;13.20;56.60
17762;DHT22;9005;48.838;10.112;2024-03-22T09:47:57;13.20;57.10
17762;DHT22;9005;48.838;10.112;2024-03-22T09:50:26;13.30;56.10
17762;DHT22;9005;48.838;10.112;2024-03-22T09:52:52;13.50;55.30
17762;DHT22;9005;48.838;10.112;2024-03-22T09:55:22;13.50;55.80
17762;DHT22;9005;48.838;10.112;2024-03-22T09:57:49;13.80;55.50
17762;DHT22;9005;48.838;10.112;2024-03-22T10:00:18;14.10;54.50
17762;DHT22;9005;48.838;10.112;2024-03-22T10:02:46;14.20;52.90
17762;DHT22;9005;48.838;10.112;2024-03-22T10:05:13;14.40;53.60
17762;DHT22;9005;48.838;10.112;2024-03-22T10:07:40;14.70;52.10
17762;DHT22;9005;48.838;10.112;2024-03-22T10:10:07;15.30;51.40
17762;DHT22;9005;48.838;10.112;2024-03-22T10:12:33;15.70;49.30
17762;DHT22;9005;48.838;10.112;2024-03-22T10:15:00;15.80;49.40
17762;DHT22;9005;48.838;10.112;2024-03-22T10:17:26;16.10;48.70
17762;DHT22;9005;48.838;10.112;2024-03-22T10:19:53;16.70;49.10
17762;DHT22;9005;48.838;10.112;2024-03-22T10:22:20;17.10;47.50
17762;DHT22;9005;48.838;10.112;2024-03-22T10:24:47;17.00;46.80
17762;DHT22;9005;48.838;10.112;2024-03-22T10:27:14;17.40;45.00
17762;DHT22;9005;48.838;10.112;2024-03-22T10:29:39;17.20;45.40
17762;DHT22;9005;48.838;10.112;2024-03-22T10:32:06;17.20;45.10
17762;DHT22;9005;48.838;10.112;2024-03-22T10:34:34;17.10;45.40
17762;DHT22;9005;48.838;10.112;2024-03-22T10:37:01;17.10;45.00
17762;DHT22;9005;48.838;10.112;2024-03-22T10:39:28;17.20;44.70
17762;DHT22;9005;48.838;10.112;2024-03-22T10:41:57;17.00;45.10
17762;DHT22;9005;48.838;10.112;2024-03-22T10:44:23;17.20;44.70
17762;DHT22;9005;48.838;10.112;2024-03-22T10:46:49;16.90;44.70
17762;DHT22;9005;48.838;10.112;2024-03-22T10:49:18;17.30;44.10
17762;DHT22;9005;48.838;10.112;2024-03-22T10:51:47;17.50;44.30
17762;DHT22;9005;48.838;10.112;2024-03-22T10:54:20;17.60;43.50
17762;DHT22;9005;48.838;10.112;2024-03-22T10:56:48;18.10;42.30
17762;DHT22;9005;48.838;10.112;2024-03-22T10:59:18;18.20;40.80
17762;DHT22;9005;48.838;10.112;2024-03-22T11:01:46;18.40;41.00
17762;DHT22;9005;48.838;10.112;2024-03-22T11:04:12;18.90;40.40
17762;DHT22;9005;48.838;10.112;2024-03-22T11:06:39;19.00;40.20
17762;DHT22;9005;48.838;10.112;2024-03-22T11:09:05;19.00;39.90
17762;DHT22;9005;48.838;10.112;2024-03-22T11:11:35;19.10;39.80
17762;DHT22;9005;48.838;10.112;2024-03-22T11:14:03;17.90;41.40
17762;DHT22;9005;48.838;10.112;2024-03-22T11:16:31;17.90;42.30
17762;DHT22;9005;48.838;10.112;2024-03-22T11:18:57;18.40;41.20
17762;DHT22;9005;48.838;10.112;2024-03-22T11:21:23;19.00;40.40
17762;DHT22;9005;48.838;10.112;2024-03-22T11:23:49;18.70;41.50
17762;DHT22;9005;48.838;10.112;2024-03-22T11:26:16;19.60;39.30
17762;DHT22;9005;48.838;10.112;2024-03-22T11:28:42;20.30;37.60
17762;DHT22;9005;48.838;10.112;2024-03-22T11:31:09;20.50;37.60
17762;DHT22;9005;48.838;10.112;2024-03-22T11:33:37;21.10;36.60
17762;DHT22;9005;48.838;10.112;2024-03-22T11:36:03;21.10;36.00
17762;DHT22;9005;48.838;10.112;2024-03-22T11:38:31;20.90;36.70
17762;DHT22;9005;48.838;10.112;2024-03-22T11:40:58;20.20;38.10
17762;DHT22;9005;48.838;10.112;2024-03-22T11:43:27;20.80;38.20
17762;DHT22;9005;48.838;10.112;2024-03-22T11:45:53;21.20;35.40
17762;DHT22;9005;48.838;10.112;2024-03-22T11:48:20;20.90;34.60
17762;DHT22;9005;48.838;10.112;2024-03-22T11:50:47;20.50;34.90
17762;DHT22;9005;48.838;10.112;2024-03-22T11:53:16;20.10;36.50
17762;DHT22;9005;48.838;10.112;2024-03-22T11:55:41;19.50;38.10
17762;DHT22;9005;48.838;10.112;2024-03-22T11:58:09;19.50;38.40
17762;DHT22;9005;48.838;10.112;2024-03-22T12:00:35;20.30;38.30
17762;DHT22;9005;48.838;10.112;2024-03-22T12:03:04;21.20;36.30
17762;DHT22;9005;48.838;10.112;2024-03-22T12:05:31;21.20;34.30
17762;DHT22;9005;48.838;10.112;2024-03-22T12:07:59;20.80;35.20
17762;DHT22;9005;48.838;10.112;2024-03-22T12:10:25;20.30;36.00
17762;DHT22;9005;48.838;10.112;2024-03-22T12:12:51;19.90;37.40
17762;DHT22;9005;48.838;10.112;2024-03-22T12:15:19;20.10;37.30
17762;DHT22;9005;48.838;10.112;2024-03-22T12:17:46;20.60;35.60
17762;DHT22;9005;48.838;10.112;2024-03-22T12:20:11;20.50;35.70
17762;DHT22;9005;48.838;10.112;2024-03-22T12:22:40;20.70;35.80
17762;DHT22;9005;48.838;10.112;2024-03-22T12:25:08;21.00;35.40
17762;DHT22;9005;48.838;10.112;2024-03-22T12:27:37;21.70;34.30
17762;DHT22;9005;48.838;10.112;2024-03-22T12:30:03;21.50;34.10
17762;DHT22;9005;48.838;10.112;2024-03-22T12:32:31;20.40;34.10
17762;DHT22;9005;48.838;10.112;2024-03-22T12:34:57;19.10;36.10
17762;DHT22;9005;48.838;10.112;2024-03-22T12:37:24;18.60;37.10
17762;DHT22;9005;48.838;10.112;2024-03-22T12:39:49;18.30;36.70
17762;DHT22;9005;48.838;10.112;2024-03-22T12:42:19;18.60;37.40
17762;DHT22;9005;48.838;10.112;2024-03-22T12:44:44;19.60;35.80
17762;DHT22;9005;48.838;10.112;2024-03-22T12:47:11;20.50;32.80
17762;DHT22;9005;48.838;10.112;2024-03-22T12:49:37;21.10;32.60
17762;DHT22;9005;48.838;10.112;2024-03-22T12:52:04;21.20;32.20
17762;DHT22;9005;48.838;10.112;2024-03-22T12:54:30;21.60;31.80
17762;DHT22;9005;48.838;10.112;2024-03-22T12:56:56;20.80;31.40
17762;DHT22;9005;48.838;10.112;2024-03-22T12:59:24;20.70;32.50
17762;DHT22;9005;48.838;10.112;2024-03-22T13:01:50;20.70;31.30
17762;DHT22;9005;48.838;10.112;2024-03-22T13:04:17;20.10;31.30
17762;DHT22;9005;48.838;10.112;2024-03-22T13:06:44;20.20;31.70
17762;DHT22;9005;48.838;10.112;2024-03-22T13:09:09;19.70;30.70
17762;DHT22;9005;48.838;10.112;2024-03-22T13:11:38;19.40;31.30
17762;DHT22;9005;48.838;10.112;2024-03-22T13:14:04;19.10;31.70
17762;DHT22;9005;48.838;10.112;2024-03-22T13:16:32;19.00;32.80
17762;DHT22;9005;48.838;10.112;2024-03-22T13:18:57;18.60;33.40
17762;DHT22;9005;48.838;10.112;2024-03-22T13:21:24;18.70;33.50
17762;DHT22;9005;48.838;10.112;2024-03-22T13:23:50;18.60;34.00
17762;DHT22;9005;48.838;10.112;2024-03-22T13:26:17;18.60;34.30
17762;DHT22;9005;48.838;10.112;2024-03-22T13:28:42;18.70;34.70
17762;DHT22;9005;48.838;10.112;2024-03-22T13:31:09;18.60;34.50
17762;DHT22;9005;48.838;10.112;2024-03-22T13:33:36;18.30;34.90
17762;DHT22;9005;48.838;10.112;2024-03-22T13:36:03;18.50;35.40
17762;DHT22;9005;48.838;10.112;2024-03-22T13:38:30;18.80;35.90
17762;DHT22;9005;48.838;10.112;2024-03-22T13:40:57;18.70;35.70
17762;DHT22;9005;48.838;10.112;2024-03-22T13:43:25;18.70;36.00
17762;DHT22;9005;48.838;10.112;2024-03-22T13:45:52;18.90;36.10
17762;DHT22;9005;48.838;10.112;2024-03-22T13:48:20;18.80;36.30
17762;DHT22;9005;48.838;10.112;2024-03-22T13:50:50;18.90;36.90
17762;DHT22;9005;48.838;10.112;2024-03-22T13:53:17;19.00;35.80
17762;DHT22;9005;48.838;10.112;2024-03-22T13:55:43;19.10;36.20
17762;DHT22;9005;48.838;10.112;2024-03-22T13:58:09;19.70;35.40
17762;DHT22;9005;48.838;10.112;2024-03-22T14:00:36;20.20;34.30
17762;DHT22;9005;48.838;10.112;2024-03-22T14:03:02;20.60;34.20
17762;DHT22;9005;48.838;10.112;2024-03-22T14:05:29;20.70;34.90
17762;DHT22;9005;48.838;10.112;2024-03-22T14:07:56;20.70;34.60
17762;DHT22;9005;48.838;10.112;2024-03-22T14:10:22;20.30;33.40
17762;DHT22;9005;48.838;10.112;2024-03-22T14:12:50;20.10;34.40
17762;DHT22;9005;48.838;10.112;2024-03-22T14:15:17;20.30;33.90
17762;DHT22;9005;48.838;10.112;2024-03-22T14:17:42;20.40;33.70
17762;DHT22;9005;48.838;10.112;2024-03-22T14:20:10;20.80;34.00
17762;DHT22;9005;48.838;10.112;2024-03-22T14:22:37;21.30;33.90
17762;DHT22;9005;48.838;10.112;2024-03-22T14:25:06;21.30;32.90
17762;DHT22;9005;48.838;10.112;2024-03-22T14:27:33;21.90;31.50
17762;DHT22;9005;48.838;10.112;2024-03-22T14:30:00;22.40;31.50
17762;DHT22;9005;48.838;10.112;2024-03-22T14:32:26;22.60;30.60
17762;DHT22;9005;48.838;10.112;2024-03-22T14:34:53;21.50;30.60
17762;DHT22;9005;48.838;10.112;2024-03-22T14:37:19;21.70;30.90
17762;DHT22;9005;48.838;10.112;2024-03-22T14:39:46;21.50;31.00
17762;DHT22;9005;48.838;10.112;2024-03-22T14:42:13;21.10;31.50
17762;DHT22;9005;48.838;10.112;2024-03-22T14:44:40;20.50;32.80
17762;DHT22;9005;48.838;10.112;2024-03-22T14:47:06;19.70;34.30
17762;DHT22;9005;48.838;10.112;2024-03-22T14:49:33;19.20;34.80
17762;DHT22;9005;48.838;10.112;2024-03-22T14:51:58;19.10;35.60
17762;DHT22;9005;48.838;10.112;2024-03-22T14:54:25;19.70;35.30
17762;DHT22;9005;48.838;10.112;2024-03-22T14:56:51;20.10;34.90
17762;DHT22;9005;48.838;10.112;2024-03-22T14:59:20;20.50;33.80
17762;DHT22;9005;48.838;10.112;2024-03-22T15:01:46;20.60;33.70
17762;DHT22;9005;48.838;10.112;2024-03-22T15:04:13;20.50;33.80
17762;DHT22;9005;48.838;10.112;2024-03-22T15:06:38;20.00;34.80
17762;DHT22;9005;48.838;10.112;2024-03-22T15:09:05;19.70;34.20
17762;DHT22;9005;48.838;10.112;2024-03-22T15:11:36;19.10;34.50
17762;DHT22;9005;48.838;10.112;2024-03-22T15:14:03;18.50;35.60
17762;DHT22;9005;48.838;10.112;2024-03-22T15:16:30;18.30;36.30
17762;DHT22;9005;48.838;10.112;2024-03-22T15:18:57;18.00;36.70
17762;DHT22;9005;48.838;10.112;2024-03-22T15:21:23;18.00;36.40
17762;DHT22;9005;48.838;10.112;2024-03-22T15:23:49;17.80;36.90
17762;DHT22;9005;48.838;10.112;2024-03-22T15:26:15;17.50;37.20
17762;DHT22;9005;48.838;10.112;2024-03-22T15:28:42;17.40;37.80
17762;DHT22;9005;48.838;10.112;2024-03-22T15:31:07;17.40;38.30
17762;DHT22;9005;48.838;10.112;2024-03-22T15:33:36;17.30;38.40
17762;DHT22;9005;48.838;10.112;2024-03-22T15:36:02;17.20;39.00